Current | Forecast
Updated: 1:30 PM WIB on July 27, 2017
Observed at Jakarta Soekarno-Hatta, Indonesia
Temperature 90°F
Humidity 52%
Dew Point 70°F
Wind NNE at 8 mph
Pressure 29.80 in (Steady)
Conditions Partly Cloudy
Visibility 5.6 miles
UV 11 out of 16
Clouds (FEW) : 2100 ft
Yesterday's Maximum 90°F
Yesterday's Minimum 75°F approx.
Yesterday's Cooling Degree Days 17 approx.
Sunrise6:07 AM WIB
Sunset5:57 PM WIB
Moon Rise9:15 AM WIB
Moon Set9:34 PM WIB
Moon PhaseMoon Phase
Waxing Crescent
Raw METARMETAR WIII 270630Z 03007KT 9000 FEW021 32/21 Q1009 NOSIG


Monday
. High: 87° F.
Tuesday
. High: 89° F.
Wednesday
. High: 86° F.
Thursday
. High: 87° F.
Friday
. High: 87° F.
Saturday
. High: 86° F.
Sunday
. High: 87° F.
Monday
. High: 86° F.

Units: English | Metric

Find the Weather for any City, State or Zipcode, or Country:

U.S. State List | Severe Weather | Tropical Storms | Ski Conditions
United States | Canada | Central America | South America | Asia | Europe | Australia | Africa | Islands

Weather Underground

© Copyright 2017
The Weather Company, LLC